Downieville, CA

8:29 PM PDT on October 24, 2014 (GMT -0700)
KCADOWNI2 | Change Station
CLOSE
Current Station
Personal Weather Station
Location: Downieville, CA
Elevation: 2923 ft
Nearby Weather Stations

Elev 2923 ft 39.56 °N, 120.83 °W | Updated 36 seconds ago

Partly Cloudy
Partly Cloudy
47.2 °F
Feels Like 47 °F
N
0.0
Wind Variable Wind from East
Gusts 0.0 mph

Today
High -- | Low -- °F
--% Chance of Precip.
Yesterday
High -- | Low -- °F
Precip. -- in
7:22 AM 6:11 PM
New Moon, 2% visible
Pressure 29.97 in
Visibility 10.0 miles
Clouds Clear
Windchill 47 °F
Dew Point 43 °F
Humidity 86%
Rainfall 0.00 in
Snow Depth Not available.
UV 0 out of 12
Pollen 2.80 out of 12
Ozone Good
PM2.5 Good
Flu Activity Sporadic
METAR KGOO 250320Z AUTO 00000KT 10SM CLR 15/07 A2997 RMK AO1

More Conditions Fewer Conditions

Pressure 29.97 in
Visibility 10.0 miles
Clouds Clear
Windchill 47 °F
Dew Point 43 °F
Humidity 86%
Rainfall 0.00 in
Snow Depth Not available.
UV 0 out of 12
Pollen 2.80 out of 12
Ozone Good
PM2.5 Good
Flu Activity Sporadic
METAR KGOO 250320Z AUTO 00000KT 10SM CLR 15/07 A2997 RMK AO1

More Conditions Fewer Conditions

10-Day Weather Forecast

Almanac

Astronomy

Oct. 24, 2014 Rise Set
Actual Time 7:22 AM PDT 6:11 PM PDT
Civil Twilight 6:55 AM PDT 6:38 PM PDT
Nautical Twilight 6:23 AM PDT 7:10 PM PDT
Astronomical Twilight 5:52 AM PDT 7:41 PM PDT
Moon 8:06 AM PDT (10/24) 6:55 PM PDT (10/24)
Length of Visible Light 11h 43m
Length of Day
10h 48m
Tomorrow will be 2m 23s shorter.
New Moon, 2% of the Moon is Illuminated
Today
New Moon
Oct 30
First Quarter
Nov 6
Full
Nov 14
Last Quarter
Nov 22
New

Today's Extremes

State Highs State Lows

Community

WunderPhotos

Upload Photos

1,764,769 photos uploaded!

Nearby

Air Quality

  Air Quality AQ Index Pollutant
Yesterday Good
OZONE
Yesterday Good
PM2.5
Current Good
OZONE
Current Good
PM2.5
Friday Good
OZONE
Saturday Good
OZONE
Sunday Good
OZONE
Monday Good
OZONE
Tuesday Good
OZONE
Wednesday Good
OZONE

Snow Depth

Station Depth Elevation
CSS Lab 0 in 6900 ft
Independence Camp 0 in 7000 ft
Rubicon #2 0 in 7500 ft
Fallen Leaf 0 in 6300 ft
Echo Peak 0 in 7800 ft

Earthquake Activity

City Distance Mag. Time & Date
Gerlach-Empire, Nevada 77 miles 2.5 7:16 AM PDT
2014-10-23
Minimum magnitude displayed is 2.5.

Coastal Water Temperatures

Place Temperature
No Stations Reporting

Nearby Weather Stations